Flight Track Log - Related Links

Times and Time Zones

All times are in EDT time to prevent confusion due to time zone crossing. See the UAL3776 flight status page for this flight to view local times or setup timezone preferences in your user account.

Time Position Orientation Groundspeed Altitude Reporting Facility
EDT Latitude Longitude Course Direction KTS MPH feet Rate Location/Type
Sun 12:16:13 PM 25.7983 -80.2697 79° East 154 177 900  Level Miami Center
Sun 12:17:27 PM 25.8103 -80.1986 79° East 210 242 3,400 2,061 Climbing Miami Center
Sun 12:19:31 PM 25.8897 -80.2008 359° North 224 258 7,700 2,250 Climbing Miami Center
Sun 12:20:31 PM 25.9233 -80.2828 295° West 241 277 10,300 2,050 Climbing Miami Center
Sun 12:21:31 PM 25.9714 -80.3672 302° West 282 325 11,800 1,600 Climbing Miami Center
Sun 12:22:31 PM 26.0625 -80.4044 340° North 315 362 13,500 1,850 Climbing Miami Center
Sun 12:23:31 PM 26.1597 -80.4397 342° North 330 380 15,500 2,000 Climbing Miami Center
Sun 12:24:31 PM 26.2528 -80.4750 341° North 347 399 17,500 1,850 Climbing Miami Center
Sun 12:25:31 PM 26.3644 -80.5181 341° North 371 427 19,200 1,650 Climbing Miami Center
Sun 12:26:31 PM 26.4578 -80.5533 341° North 386 444 20,800 1,550 Climbing Miami Center
Sun 12:27:31 PM 26.5714 -80.5939 342° North 386 444 22,300 1,450 Climbing Miami Center
Sun 12:28:31 PM 26.6642 -80.6386 337° Northwest 391 450 23,700 1,250 Climbing Miami Center
Sun 12:29:31 PM 26.7800 -80.6914 338° Northwest 396 456 24,800 1,100 Climbing Miami Center
Sun 12:30:31 PM 26.8894 -80.7322 342° North 396 456 25,900 1,000 Climbing Miami Center
Sun 12:31:31 PM 27.0011 -80.7733 342° North 406 467 26,800 900 Climbing Miami Center
Sun 12:32:31 PM 27.1147 -80.8144 342° North 423 487 27,700 900 Climbing Miami Center
Sun 12:33:31 PM 27.2306 -80.8556 342° North 423 487 28,600 850 Climbing Miami Center
Sun 12:34:31 PM 27.3361 -80.8944 342° North 430 495 29,400 800 Climbing Miami Center
Sun 12:35:31 PM 27.4558 -80.9361 343° North 437 503 30,200 700 Climbing Miami Center
Sun 12:36:31 PM 27.5717 -80.9775 342° North 437 503 30,800 700 Climbing Miami Center
Sun 12:37:31 PM 27.6872 -81.0239 340° North 437 503 31,600 600 Climbing Miami Center
Sun 12:38:31 PM 27.8092 -81.0683 342° North 437 503 32,000 700 Climbing Miami Center
Sun 12:39:31 PM 27.9433 -81.1181 342° North 447 514 33,000 900 Climbing Miami Center
Sun 12:40:31 PM 28.0608 -81.1600 343° North 447 514 33,800 800 Climbing Miami Center
Sun 12:41:31 PM 28.1786 -81.2044 342° North 442 509 34,600 600 Climbing Miami Center
Sun 12:42:31 PM 28.2817 -81.2414 342° North 436 502 35,000 200 Climbing Miami Center
Sun 12:43:31 PM 28.4139 -81.2867 343° North 441 507 35,000  Level Miami Center
Sun 12:44:31 PM 28.5336 -81.3292 343° North 441 507 35,000  Level Miami Center
Sun 12:45:31 PM 28.6456 -81.3481 352° North 447 514 35,000  Level Miami Center
Sun 12:46:32 PM 28.7772 -81.3600 355° North 465 535 35,000  Level Jacksonville Center
Sun 12:47:32 PM 28.9069 -81.3722 355° North 471 542 35,000  Level Jacksonville Center
Sun 12:48:31 PM 29.0364 -81.3844 355° North 471 542 35,000  Level Jacksonville Center
Sun 12:49:31 PM 29.1639 -81.3992 354° North 461 531 35,000  Level Jacksonville Center
Sun 12:50:32 PM 29.2953 -81.3994 360° North 461 531 35,000  Level Jacksonville Center
Sun 12:51:32 PM 29.4289 -81.3903 North 466 536 35,000  Level Jacksonville Center
Sun 12:52:32 PM 29.5708 -81.3811 North 466 536 35,000  Level Jacksonville Center
Sun 12:53:32 PM 29.7042 -81.3719 North 466 536 35,000 50 Level Jacksonville Center
Sun 12:54:32 PM 29.8378 -81.3625 North 466 536 35,100 500 Climbing Jacksonville Center
Sun 12:55:32 PM 29.9692 -81.3533 North 471 542 36,000 950 Climbing Jacksonville Center
Sun 12:56:32 PM 30.0983 -81.3439 North 471 542 37,000 500 Climbing Jacksonville Center
Sun 12:57:32 PM 30.2278 -81.3347 North 466 536 37,000  Level Jacksonville Center
Sun 12:58:32 PM 30.3592 -81.3253 North 461 531 37,000  Level Jacksonville Center
Sun 12:59:32 PM 30.4886 -81.3183 North 461 531 37,000  Level Jacksonville Center
Sun 01:00:32 PM 30.6178 -81.3092 North 461 531 37,000  Level Jacksonville Center
Sun 01:01:32 PM 30.7472 -81.2997 North 466 536 37,000  Level Jacksonville Center
Sun 01:02:31 PM 30.8642 -81.2928 North 466 536 37,000  Level Jacksonville Center
Sun 01:03:32 PM 30.9956 -81.2808 North 466 536 37,000  Level Jacksonville Center
Sun 01:04:31 PM 31.1222 -81.2278 20° North 466 536 37,000  Level Jacksonville Center
Sun 01:05:32 PM 31.2508 -81.1672 22° Northeast 474 545 37,000  Level Jacksonville Center
Sun 01:06:32 PM 31.3897 -81.0989 23° Northeast 481 554 37,000  Level Jacksonville Center
Sun 01:07:31 PM 31.5017 -81.0431 23° Northeast 487 560 37,000  Level Jacksonville Center
Sun 01:08:31 PM 31.6383 -80.9744 23° Northeast 492 566 37,000  Level Jacksonville Center
Sun 01:09:32 PM 31.7544 -80.9208 21° North 492 566 37,000  Level Jacksonville Center
Sun 01:10:31 PM 31.8933 -80.8519 23° Northeast 492 566 37,000  Level Jacksonville Center
Sun 01:11:31 PM 32.0197 -80.7903 22° Northeast 492 566 37,000  Level Jacksonville Center
Sun 01:12:31 PM 32.1336 -80.7336 23° Northeast 492 566 37,000  Level Jacksonville Center
Sun 01:13:32 PM 32.2578 -80.6717 23° Northeast 487 560 37,000  Level Jacksonville Center
Sun 01:14:32 PM 32.3839 -80.6097 23° Northeast 487 560 37,000  Level Jacksonville Center
Sun 01:15:31 PM 32.5061 -80.5475 23° Northeast 487 560 37,000  Level Jacksonville Center
Sun 01:16:31 PM 32.6342 -80.4825 23° Northeast 487 560 37,000  Level Jacksonville Center
Sun 01:17:32 PM 32.7583 -80.4200 23° Northeast 487 560 37,000  Level Jacksonville Center
Sun 01:18:31 PM 32.8822 -80.3547 24° Northeast 487 560 37,000  Level Jacksonville Center
Sun 01:19:31 PM 33.0125 -80.2917 22° Northeast 501 577 37,000  Level Jacksonville Center
Sun 01:20:32 PM 33.1403 -80.2233 24° Northeast 496 571 37,000  Level Jacksonville Center
Sun 01:21:31 PM 33.2850 -80.1519 22° Northeast 501 577 37,000  Level Jacksonville Center
Sun 01:22:31 PM 33.4089 -80.0883 23° Northeast 491 565 37,000  Level Jacksonville Center
Sun 01:23:32 PM 33.5367 -80.0219 23° Northeast 491 565 37,000  Level Jacksonville Center
Sun 01:24:32 PM 33.6625 -79.9556 24° Northeast 491 565 37,000  Level Jacksonville Center
Sun 01:25:32 PM 33.7883 -79.8914 23° Northeast 491 565 37,000  Level Jacksonville Center
Sun 01:26:32 PM 33.9158 -79.8244 24° Northeast 491 565 37,000  Level Jacksonville Center
Sun 01:28:36 PM 34.1767 -79.6908 23° Northeast 500 575 37,000  Level Washington Center
Sun 01:29:37 PM 34.2917 -79.6264 25° Northeast 507 583 37,000  Level Washington Center
Sun 01:30:36 PM 34.4189 -79.5594 23° Northeast 502 578 37,000  Level Washington Center
Sun 01:31:36 PM 34.5464 -79.4953 23° Northeast 502 578 37,000  Level Washington Center
Sun 01:32:36 PM 34.6736 -79.4281 23° Northeast 497 572 37,000  Level Washington Center
Sun 01:33:36 PM 34.8011 -79.3606 23° Northeast 497 572 37,000  Level Washington Center
Sun 01:34:36 PM 34.9306 -79.2906 24° Northeast 497 572 37,000  Level Washington Center
Sun 01:35:36 PM 35.0597 -79.2281 22° Northeast 497 572 37,000  Level Washington Center
Sun 01:36:36 PM 35.1906 -79.1806 17° North 497 572 37,000  Level Washington Center
Sun 01:37:36 PM 35.3342 -79.1233 18° North 490 564 37,000  Level Washington Center
Sun 01:38:36 PM 35.4628 -79.0756 17° North 491 565 37,000  Level Washington Center
Sun 01:39:37 PM 35.5936 -79.0250 17° North 486 559 37,000  Level Washington Center
Sun 01:40:36 PM 35.7244 -78.9717 18° North 486 559 37,000 -350 Level Washington Center
Sun 01:41:37 PM 35.8531 -78.9208 18° North 486 559 36,300 -1,400 Descending Washington Center
Sun 01:42:36 PM 35.9797 -78.8722 17° North 486 559 34,200 -2,067 Descending Washington Center
Sun 01:43:36 PM 36.1042 -78.8236 18° North 474 545 32,200 -2,000 Descending Washington Center
Sun 01:44:36 PM 36.2306 -78.7719 18° North 474 545 30,200 -2,450 Descending Washington Center
Sun 01:45:36 PM 36.3617 -78.7156 19° North 480 552 27,300 -1,600 Descending Washington Center
Sun 01:46:36 PM 36.4783 -78.6350 29° Northeast 480 552 27,000 -645 Descending Washington Center
Sun 01:47:37 PM 36.5889 -78.5514 31° Northeast 475 547 26,000 -496 Descending Washington Center
Sun 01:48:37 PM 36.6697 -78.4897 31° Northeast 455 524 26,000  Level Washington Center
Sun 01:49:36 PM 36.7994 -78.3908 31° Northeast 439 505 26,000  Level Washington Center
Sun 01:50:37 PM 36.9056 -78.3064 32° Northeast 439 505 26,000  Level Washington Center
Sun 01:51:36 PM 37.0222 -78.2192 31° Northeast 458 527 26,000  Level Washington Center
Sun 01:52:36 PM 37.1306 -78.1369 31° Northeast 463 533 26,000 -545 Level Washington Center
Sun 01:53:37 PM 37.2408 -78.0494 32° Northeast 463 533 24,900 -1,050 Descending Washington Center
Sun 01:54:36 PM 37.3489 -77.9692 31° Northeast 458 527 23,900 -1,059 Descending Washington Center
Sun 01:55:36 PM 37.4525 -77.8886 32° Northeast 458 527 22,800 -942 Descending Washington Center
Sun 01:56:37 PM 37.5456 -77.8183 31° Northeast 423 487 22,000 -400 Descending Washington Center
Sun 01:57:36 PM 37.6342 -77.7658 25° Northeast 379 436 22,000  Level Washington Center
Sun 01:58:36 PM 37.7269 -77.7133 24° Northeast 357 411 22,000 -1,050 Level Washington Center
Sun 01:59:36 PM 37.8156 -77.6606 25° Northeast 351 404 19,900 -2,050 Descending Washington Center
Sun 02:00:36 PM 37.9039 -77.6103 24° Northeast 351 404 17,900 -2,000 Descending Washington Center
Sun 02:01:36 PM 37.9883 -77.5572 26° Northeast 339 390 15,900 -1,850 Descending Washington Center
Sun 02:02:36 PM 38.0597 -77.5197 22° Northeast 327 376 14,200 -1,750 Descending Washington Center
Sun 02:03:36 PM 38.1378 -77.4714 26° Northeast 311 358 12,400 -1,800 Descending Washington Center
Sun 02:04:36 PM 38.2133 -77.4283 24° Northeast 300 345 10,600 -1,289 Descending Washington Center
Sun 02:05:37 PM 38.2956 -77.3828 23° Northeast 294 338 9,800 -1,190 Descending Washington Center
Sun 02:06:37 PM 38.3528 -77.4450 320° Northwest 253 291 8,200 -1,412 Descending Washington Center
Sun 02:07:36 PM 38.4214 -77.4706 344° North 253 291 7,000 -600 Descending Washington Center
Sun 02:08:37 PM 38.4964 -77.4700 360° North 259 298 7,000 -450 Level Washington Center
Sun 02:09:36 PM 38.5694 -77.4692 North 254 292 6,100 -908 Descending Washington Center
Sun 02:10:36 PM 38.6403 -77.4628 North 254 292 5,200 -843 Descending Washington Center
Sun 02:11:37 PM 38.7008 -77.4644 359° North 236 272 4,400 -600 Descending Washington Center
Sun 02:12:36 PM 38.7633 -77.4661 359° North 225 259 4,000 -962 Descending Washington Center
Sun 02:13:48 PM 38.8333 -77.4667 360° North 214 246 2,300 -1,227 Descending Potomac TRACON
Sun 02:14:48 PM 38.9000 -77.4667 360° North 171 197 1,300 -1,000 Descending Potomac TRACON
Sun 02:16:00 PM 38.9474 -77.4599 11° North  Level Estimated
Sun 02:23:00 PM 38.9474 -77.4599 195° South  Level Estimated
Sun 02:24:00 PM 38.9474 -77.4599 195° South  Level Estimated
Sun 02:25:00 PM 38.9474 -77.4599 195° South  Level Estimated
Sun 02:26:00 PM 38.9474 -77.4599 195° South  Level Estimated

Login

Don't have an account? Register now (free) for customized features, flight alerts, and more!